Terminal Aerodrome Forecast
Issued by NWS Melbourne, FL

Home | Current Version | Previous Version | Text Only | Print | Product List | Glossary On
Versions: 1 2 3 4 5 6 7 8 9 10 11 12 13 14
252
FTUS42 KMLB 272339
TAFVRB
TAF
KVRB 272339Z 2800/2824 26005KT P6SM VCSH SCT050 BKN120
     FM280200 22003KT P6SM FEW030 SCT120
     FM281400 23005KT P6SM SCT025
     FM281900 13007KT P6SM VCTS SCT040CB SCT100=

USA.gov is the U.S. government's official web portal to all federal, state and local government web resources and services.